createdAt,value
2023-04-18T00:00:56.317Z,99.90
2023-04-18T00:03:24.880Z,99.90
2023-04-18T00:05:55.169Z,99.90
2023-04-18T00:08:23.504Z,99.90
2023-04-18T00:10:51.971Z,99.90
2023-04-18T00:13:20.295Z,99.90
2023-04-18T00:15:48.586Z,99.90
2023-04-18T00:18:17.300Z,99.90
2023-04-18T00:20:46.221Z,99.90
2023-04-18T00:23:16.421Z,99.90
2023-04-18T00:25:44.706Z,99.90
2023-04-18T00:28:12.996Z,99.90
2023-04-18T00:30:41.287Z,99.90
2023-04-18T00:33:09.689Z,99.90
2023-04-18T00:35:38.199Z,99.90
2023-04-18T00:38:06.485Z,99.90
2023-04-18T00:40:36.328Z,99.90
2023-04-18T00:43:04.577Z,99.90
2023-04-18T00:45:34.327Z,99.90
2023-04-18T00:48:03.174Z,99.90
2023-04-18T00:50:31.642Z,99.90
2023-04-18T00:53:00.181Z,99.90
2023-04-18T00:55:28.597Z,99.90
2023-04-18T00:57:58.643Z,99.90
2023-04-18T01:00:27.388Z,99.90
2023-04-18T01:02:56.165Z,99.90
2023-04-18T01:05:26.220Z,99.90
2023-04-18T01:07:58.771Z,99.90
2023-04-18T01:10:27.659Z,99.90
2023-04-18T01:15:55.812Z,99.90
2023-04-18T01:18:24.388Z,99.90
2023-04-18T01:20:54.831Z,99.90
2023-04-18T01:23:23.133Z,99.90
2023-04-18T01:25:53.017Z,99.90
2023-04-18T01:28:23.603Z,99.90
2023-04-18T01:30:52.190Z,99.90
2023-04-18T01:33:20.544Z,99.90
2023-04-18T01:35:49.933Z,99.90
2023-04-18T01:38:18.225Z,99.90
2023-04-18T01:40:46.618Z,99.90
2023-04-18T01:43:18.366Z,99.90
2023-04-18T01:45:46.645Z,99.90
2023-04-18T01:48:15.034Z,99.90
2023-04-18T01:50:43.612Z,99.90
2023-04-18T01:53:12.309Z,99.90
2023-04-18T01:55:40.620Z,99.90
2023-04-18T01:58:08.897Z,99.90
2023-04-18T02:00:39.615Z,99.90
2023-04-18T02:03:08.208Z,99.90
2023-04-18T02:05:37.706Z,99.90
2023-04-18T02:08:08.377Z,99.90
2023-04-18T02:10:41.392Z,99.90
2023-04-18T02:13:09.961Z,99.90
2023-04-18T02:15:39.807Z,99.90
2023-04-18T02:18:09.589Z,99.90
2023-04-18T02:20:38.093Z,99.90
2023-04-18T02:23:07.324Z,99.90
2023-04-18T02:25:35.671Z,99.90
2023-04-18T02:28:04.136Z,99.90
2023-04-18T02:30:33.149Z,99.90
2023-04-18T02:33:05.510Z,99.90
2023-04-18T02:35:33.980Z,99.90
2023-04-18T02:38:02.283Z,99.90
2023-04-18T02:40:30.572Z,99.90
2023-04-18T02:43:02.142Z,99.90
2023-04-18T02:45:30.936Z,99.90
2023-04-18T02:48:01.667Z,99.90
2023-04-18T02:50:32.167Z,99.90
2023-04-18T02:53:00.973Z,99.90
2023-04-18T02:55:40.464Z,99.90
2023-04-18T02:58:09.199Z,99.90
2023-04-18T03:01:16.148Z,99.90
2023-04-18T03:04:03.347Z,99.90
2023-04-18T03:06:38.534Z,99.90
2023-04-18T03:09:07.815Z,99.90
2023-04-18T03:11:40.836Z,99.90
2023-04-18T03:14:10.669Z,99.90
2023-04-18T03:16:46.945Z,99.90
2023-04-18T03:19:19.568Z,99.90
2023-04-18T03:21:50.678Z,99.90
2023-04-18T03:24:19.038Z,99.90
2023-04-18T03:26:51.586Z,99.90
2023-04-18T03:29:23.029Z,99.90
2023-04-18T03:31:53.464Z,99.90
2023-04-18T03:34:21.937Z,99.90
2023-04-18T03:36:52.357Z,99.90
2023-04-18T03:39:22.674Z,99.90
2023-04-18T03:41:52.251Z,99.90
2023-04-18T03:44:21.238Z,99.90
2023-04-18T03:46:49.863Z,99.90
2023-04-18T03:49:18.568Z,99.90
2023-04-18T03:51:49.464Z,99.90
2023-04-18T03:54:19.697Z,99.90
2023-04-18T03:56:48.105Z,99.90
2023-04-18T03:59:17.610Z,99.90
2023-04-18T04:01:50.395Z,99.90
2023-04-18T04:04:20.014Z,99.90
2023-04-18T04:06:48.804Z,99.90
2023-04-18T04:09:19.906Z,99.90
2023-04-18T04:11:48.459Z,99.90
2023-04-18T04:14:22.928Z,99.90
2023-04-18T04:16:51.854Z,99.90
2023-04-18T04:19:21.398Z,99.90
2023-04-18T04:22:02.973Z,99.90
2023-04-18T04:24:40.601Z,99.90
2023-04-18T04:27:13.946Z,99.90
2023-04-18T04:29:44.530Z,99.90
2023-04-18T04:32:18.865Z,99.90
2023-04-18T04:34:47.827Z,99.90
2023-04-18T04:37:18.805Z,99.90
2023-04-18T04:40:10.624Z,99.90
2023-04-18T04:42:54.172Z,99.90
2023-04-18T04:45:42.176Z,99.90
2023-04-18T04:48:11.167Z,99.90
2023-04-18T04:50:47.634Z,99.90
2023-04-18T04:53:46.378Z,99.90
2023-04-18T04:56:16.564Z,99.90
2023-04-18T04:58:53.088Z,99.90
2023-04-18T05:01:40.769Z,99.90
2023-04-18T05:04:09.576Z,99.90
2023-04-18T05:06:40.144Z,99.90
2023-04-18T05:09:16.048Z,99.90
2023-04-18T05:11:46.458Z,99.90
2023-04-18T05:14:15.273Z,99.90
2023-04-18T05:16:51.225Z,99.90
2023-04-18T05:19:33.768Z,99.90
2023-04-18T05:22:03.331Z,99.90
2023-04-18T05:24:39.993Z,99.90
2023-04-18T05:27:12.621Z,99.90
2023-04-18T05:29:41.654Z,99.90
2023-04-18T05:32:10.170Z,99.90
2023-04-18T05:34:42.800Z,99.90
2023-04-18T05:37:12.202Z,99.90
2023-04-18T05:39:50.419Z,99.90
2023-04-18T05:42:45.660Z,99.90
2023-04-18T05:45:24.317Z,99.90
2023-04-18T05:47:53.966Z,99.90
2023-04-18T05:50:23.285Z,99.90
2023-04-18T05:52:54.340Z,99.90
2023-04-18T05:55:22.845Z,99.90
2023-04-18T05:57:52.645Z,99.90
2023-04-18T06:00:21.799Z,99.90
2023-04-18T06:02:50.996Z,99.90
2023-04-18T06:05:19.966Z,99.90
2023-04-18T06:07:59.928Z,99.90
2023-04-18T06:10:28.216Z,99.90
2023-04-18T06:13:01.009Z,99.90
2023-04-18T06:15:29.677Z,99.90
2023-04-18T06:17:58.465Z,99.90
2023-04-18T06:20:26.879Z,99.90
2023-04-18T06:22:55.181Z,99.90
2023-04-18T06:25:29.886Z,99.90
2023-04-18T06:28:07.799Z,99.90
2023-04-18T06:30:50.145Z,99.90
2023-04-18T06:33:18.545Z,99.90
2023-04-18T06:36:07.649Z,99.90
2023-04-18T06:38:37.038Z,99.90
2023-04-18T06:41:05.854Z,99.90
2023-04-18T06:44:02.609Z,99.90
2023-04-18T06:46:32.141Z,99.90
2023-04-18T06:49:00.509Z,99.90
2023-04-18T06:51:29.090Z,99.90
2023-04-18T06:53:57.579Z,99.90
2023-04-18T06:56:26.225Z,99.90
2023-04-18T06:58:56.312Z,99.90
2023-04-18T07:01:51.028Z,99.90
2023-04-18T07:04:19.733Z,99.90
2023-04-18T07:06:50.406Z,99.90
2023-04-18T07:09:22.933Z,99.90
2023-04-18T07:11:52.753Z,99.90
2023-04-18T07:14:24.700Z,99.90
2023-04-18T07:16:53.385Z,99.90
2023-04-18T07:19:41.894Z,99.90
2023-04-18T07:22:10.708Z,99.90
2023-04-18T07:24:40.053Z,99.90
2023-04-18T07:27:09.635Z,99.90
2023-04-18T07:29:39.755Z,99.90
2023-04-18T07:32:10.883Z,99.90
2023-04-18T07:34:40.337Z,99.90
2023-04-18T07:37:08.959Z,99.90
2023-04-18T07:39:37.332Z,99.90
2023-04-18T07:42:05.891Z,99.90
2023-04-18T07:44:38.096Z,99.90
2023-04-18T07:47:22.186Z,99.90
2023-04-18T07:49:51.130Z,99.90
2023-04-18T07:52:19.806Z,99.90
2023-04-18T07:54:48.123Z,99.90
2023-04-18T07:57:19.870Z,99.90
2023-04-18T07:59:53.850Z,99.90
2023-04-18T08:02:24.320Z,99.90
2023-04-18T08:04:53.181Z,99.90
2023-04-18T08:07:21.863Z,99.90
2023-04-18T08:09:50.143Z,99.90
2023-04-18T08:12:18.601Z,99.90
2023-04-18T08:14:46.935Z,99.90
2023-04-18T08:17:16.719Z,99.90
2023-04-18T08:19:45.874Z,99.90
2023-04-18T08:22:14.320Z,99.90
2023-04-18T08:25:01.135Z,99.90
2023-04-18T08:27:32.855Z,99.90
2023-04-18T08:30:04.111Z,99.90
2023-04-18T08:32:44.265Z,99.90
2023-04-18T08:35:12.892Z,99.90
2023-04-18T08:37:41.196Z,99.90
2023-04-18T08:40:17.074Z,99.90
2023-04-18T08:42:46.202Z,99.90
2023-04-18T08:45:15.479Z,99.90
2023-04-18T08:47:49.983Z,99.90
2023-04-18T08:50:21.522Z,99.90
2023-04-18T08:52:52.593Z,99.90
2023-04-18T08:55:22.487Z,99.90
2023-04-18T08:57:54.158Z,99.90
2023-04-18T09:00:23.650Z,99.90
2023-04-18T09:02:58.479Z,99.90
2023-04-18T09:05:30.744Z,99.90
2023-04-18T09:07:59.580Z,99.90
2023-04-18T09:10:41.992Z,99.90
2023-04-18T09:13:11.427Z,99.90
2023-04-18T09:15:40.875Z,99.90
2023-04-18T09:18:11.735Z,99.70
2023-04-18T09:20:47.682Z,98.50
2023-04-18T09:23:26.203Z,98.20
2023-04-18T09:26:03.173Z,98.60
2023-04-18T09:28:34.245Z,98.00
2023-04-18T09:31:11.936Z,98.30
2023-04-18T09:33:43.421Z,97.90
2023-04-18T09:36:19.480Z,97.90
2023-04-18T09:38:48.423Z,97.90
2023-04-18T09:41:19.891Z,97.40
2023-04-18T09:43:50.237Z,95.30
2023-04-18T09:46:19.047Z,95.80
2023-04-18T09:48:49.140Z,95.30
2023-04-18T09:51:17.985Z,96.80
2023-04-18T09:53:47.783Z,93.30
2023-04-18T09:56:24.763Z,92.00
2023-04-18T09:58:58.245Z,92.00
2023-04-18T10:01:29.845Z,92.80
2023-04-18T10:04:04.188Z,93.00
2023-04-18T10:06:35.557Z,93.90
2023-04-18T10:09:05.815Z,94.30
2023-04-18T10:11:34.414Z,95.50
2023-04-18T10:14:07.705Z,95.10
2023-04-18T10:16:37.501Z,94.70
2023-04-18T10:19:23.894Z,95.10
2023-04-18T10:21:53.980Z,95.60
2023-04-18T10:24:50.576Z,95.20
2023-04-18T10:27:23.095Z,95.20
2023-04-18T10:29:54.398Z,95.40
2023-04-18T10:32:24.678Z,94.60
2023-04-18T10:34:55.079Z,94.10
2023-04-18T10:37:23.522Z,93.90
2023-04-18T10:39:58.611Z,94.00
2023-04-18T10:43:00.391Z,93.80
2023-04-18T10:45:31.369Z,93.50
2023-04-18T10:48:29.721Z,93.30
2023-04-18T10:51:20.897Z,92.50
2023-04-18T10:53:53.418Z,92.70
2023-04-18T10:56:22.760Z,92.10
2023-04-18T10:58:52.719Z,91.80
2023-04-18T11:01:31.668Z,92.50
2023-04-18T11:04:01.734Z,92.40
2023-04-18T11:06:31.656Z,92.30
2023-04-18T11:09:12.548Z,92.30
2023-04-18T11:11:41.626Z,92.10
2023-04-18T11:14:10.184Z,91.60
2023-04-18T11:16:39.302Z,92.30
2023-04-18T11:19:27.900Z,92.50
2023-04-18T11:22:02.553Z,91.70
2023-04-18T11:24:31.212Z,93.20
2023-04-18T11:27:00.534Z,92.40
2023-04-18T11:29:28.915Z,92.40
2023-04-18T11:31:58.586Z,92.60
2023-04-18T11:34:31.480Z,92.50
2023-04-18T11:37:01.709Z,92.50
2023-04-18T11:39:35.230Z,92.60
2023-04-18T11:42:12.340Z,92.70
2023-04-18T11:44:43.933Z,92.00
2023-04-18T11:47:27.118Z,91.50
2023-04-18T11:49:59.683Z,92.00
2023-04-18T11:52:34.108Z,91.80
2023-04-18T11:55:13.801Z,92.30
2023-04-18T11:57:42.944Z,91.50
2023-04-18T12:00:13.670Z,91.10
2023-04-18T12:02:44.364Z,91.30
2023-04-18T12:05:15.306Z,90.60
2023-04-18T12:07:47.943Z,90.30
2023-04-18T12:10:27.270Z,90.90
2023-04-18T12:12:58.723Z,90.80
2023-04-18T12:15:32.013Z,90.50
2023-04-18T12:18:02.185Z,90.50
2023-04-18T12:20:38.851Z,91.10
2023-04-18T12:23:09.303Z,90.60
2023-04-18T12:25:38.520Z,90.90
2023-04-18T12:28:16.854Z,91.20
2023-04-18T12:30:45.536Z,90.70
2023-04-18T12:33:13.912Z,91.50
2023-04-18T12:35:42.636Z,91.30
2023-04-18T12:38:12.832Z,90.40
2023-04-18T12:40:41.821Z,90.10
2023-04-18T12:43:11.306Z,90.70
2023-04-18T12:45:47.634Z,90.80
2023-04-18T12:48:16.001Z,91.80
2023-04-18T12:50:44.370Z,90.60
2023-04-18T12:53:15.155Z,91.20
2023-04-18T12:55:46.570Z,91.20
2023-04-18T12:58:18.767Z,91.80
2023-04-18T13:00:47.270Z,92.10
2023-04-18T13:03:15.746Z,91.30
2023-04-18T13:05:44.261Z,90.90
2023-04-18T13:08:17.547Z,90.30
2023-04-18T13:10:47.635Z,90.90
2023-04-18T13:13:16.269Z,90.50
2023-04-18T13:15:44.694Z,90.80
2023-04-18T13:18:13.063Z,91.10
2023-04-18T13:20:41.547Z,90.40
2023-04-18T13:23:09.950Z,91.10
2023-04-18T13:25:40.197Z,91.10
2023-04-18T13:28:08.431Z,90.80
2023-04-18T13:30:36.764Z,91.30
2023-04-18T13:33:05.306Z,91.40
2023-04-18T13:35:33.609Z,90.20
2023-04-18T13:38:02.017Z,90.20
2023-04-18T13:40:30.507Z,89.60
2023-04-18T13:43:00.314Z,87.10
2023-04-18T13:45:31.790Z,89.30
2023-04-18T13:48:00.417Z,87.20
2023-04-18T13:50:29.988Z,86.60
2023-04-18T13:52:58.356Z,87.60
2023-04-18T13:55:27.484Z,88.40
2023-04-18T13:57:56.031Z,86.20
2023-04-18T14:00:27.001Z,86.40
2023-04-18T14:02:57.640Z,87.40
2023-04-18T14:05:26.103Z,87.30
2023-04-18T14:08:02.628Z,86.10
2023-04-18T14:10:32.177Z,86.70
2023-04-18T14:13:00.724Z,86.60
2023-04-18T14:15:30.802Z,85.50
2023-04-18T14:17:59.405Z,87.10
2023-04-18T14:20:34.277Z,84.40
2023-04-18T14:23:02.620Z,84.30
2023-04-18T14:25:31.247Z,84.30
2023-04-18T14:28:07.942Z,85.20
2023-04-18T14:30:38.193Z,85.60
2023-04-18T14:33:07.233Z,85.50
2023-04-18T14:35:35.981Z,85.50
2023-04-18T14:38:04.433Z,84.80
2023-04-18T14:40:33.093Z,84.70
2023-04-18T14:43:01.470Z,85.50
2023-04-18T14:45:32.245Z,86.60
2023-04-18T14:48:02.455Z,86.00
2023-04-18T14:50:30.942Z,87.40
2023-04-18T14:52:59.670Z,86.90
2023-04-18T14:55:28.168Z,83.70
2023-04-18T14:57:56.450Z,83.20
2023-04-18T15:00:24.901Z,82.60
2023-04-18T15:02:53.529Z,82.60
2023-04-18T15:05:24.917Z,80.70
2023-04-18T15:07:53.731Z,81.60
2023-04-18T15:10:22.726Z,83.50
2023-04-18T15:12:52.432Z,84.00
2023-04-18T15:15:22.633Z,82.90
2023-04-18T15:17:54.341Z,85.40
2023-04-18T15:20:25.346Z,83.70
2023-04-18T15:22:53.684Z,83.70
2023-04-18T15:25:22.063Z,84.40
2023-04-18T15:27:50.744Z,84.20
2023-04-18T15:30:19.335Z,85.60
2023-04-18T15:32:48.538Z,86.70
2023-04-18T15:35:17.268Z,87.00
2023-04-18T15:37:47.234Z,87.30
2023-04-18T15:40:18.775Z,86.70
2023-04-18T15:42:49.404Z,86.60
2023-04-18T15:45:17.827Z,87.40
2023-04-18T15:47:46.187Z,87.80
2023-04-18T15:50:16.251Z,87.70
2023-04-18T15:52:47.451Z,87.80
2023-04-18T15:55:15.794Z,88.30
2023-04-18T15:57:44.231Z,87.60
2023-04-18T16:00:15.984Z,87.90
2023-04-18T16:02:45.246Z,88.70
2023-04-18T16:05:15.415Z,88.60
2023-04-18T16:07:44.476Z,88.90
2023-04-18T16:10:15.367Z,89.70
2023-04-18T16:12:43.834Z,90.30
2023-04-18T16:15:20.347Z,89.60
2023-04-18T16:17:48.701Z,88.60
2023-04-18T16:20:16.976Z,87.70
2023-04-18T16:22:45.362Z,89.20
2023-04-18T16:25:15.667Z,89.00
2023-04-18T16:27:44.067Z,90.10
2023-04-18T16:30:13.251Z,90.20
2023-04-18T16:32:41.604Z,90.30
2023-04-18T16:35:11.157Z,90.60
2023-04-18T16:37:39.877Z,90.90
2023-04-18T16:40:10.174Z,90.50
2023-04-18T16:42:42.729Z,91.50
2023-04-18T16:45:14.135Z,91.80
2023-04-18T16:47:42.561Z,91.70
2023-04-18T16:50:11.340Z,91.70
2023-04-18T16:52:42.380Z,91.90
2023-04-18T16:55:13.865Z,92.30
2023-04-18T16:57:46.023Z,92.60
2023-04-18T17:00:17.265Z,92.50
2023-04-18T17:02:45.993Z,92.50
2023-04-18T17:05:25.514Z,92.80
2023-04-18T17:07:54.972Z,93.10
2023-04-18T17:10:26.532Z,93.10
2023-04-18T17:12:59.283Z,93.10
2023-04-18T17:15:28.410Z,93.40
2023-04-18T17:18:01.139Z,93.60
2023-04-18T17:20:31.577Z,93.40
2023-04-18T17:23:02.046Z,93.60
2023-04-18T17:25:30.333Z,94.00
2023-04-18T17:28:06.044Z,94.30
2023-04-18T17:30:34.338Z,94.50
2023-04-18T17:33:04.777Z,94.70
2023-04-18T17:35:33.729Z,94.90
2023-04-18T17:38:02.328Z,95.30
2023-04-18T17:40:33.107Z,95.10
2023-04-18T17:43:07.472Z,95.60
2023-04-18T17:45:35.811Z,95.40
2023-04-18T17:48:04.390Z,95.50
2023-04-18T17:50:33.272Z,95.50
2023-04-18T17:53:01.986Z,95.70
2023-04-18T17:55:30.486Z,95.50
2023-04-18T17:57:58.762Z,95.30
2023-04-18T18:00:30.636Z,94.80
2023-04-18T18:03:03.567Z,94.60
2023-04-18T18:05:32.163Z,94.90
2023-04-18T18:08:03.533Z,95.00
2023-04-18T18:10:33.123Z,94.80
2023-04-18T18:13:01.462Z,94.40
2023-04-18T18:15:31.329Z,94.60
2023-04-18T18:18:02.077Z,94.40
2023-04-18T18:20:33.878Z,94.40
2023-04-18T18:23:02.836Z,94.50
2023-04-18T18:25:41.396Z,94.40
2023-04-18T18:28:12.288Z,94.90
2023-04-18T18:30:42.577Z,95.10
2023-04-18T18:33:10.940Z,95.00
2023-04-18T18:35:42.216Z,95.30
2023-04-18T18:38:10.774Z,95.20
2023-04-18T18:40:39.296Z,95.30
2023-04-18T18:43:10.680Z,95.40
2023-04-18T18:45:40.717Z,95.80
2023-04-18T18:48:12.785Z,95.90
2023-04-18T18:50:44.284Z,95.60
2023-04-18T18:53:14.819Z,95.60
2023-04-18T18:55:49.396Z,95.50
2023-04-18T18:58:20.800Z,95.70
2023-04-18T19:00:51.222Z,95.40
2023-04-18T19:03:24.887Z,95.50
2023-04-18T19:05:57.585Z,95.60
2023-04-18T19:08:32.135Z,95.60
2023-04-18T19:11:00.551Z,95.10
2023-04-18T19:13:30.532Z,95.30
2023-04-18T19:15:59.272Z,94.40
2023-04-18T19:18:31.583Z,94.60
2023-04-18T19:21:02.594Z,94.30
2023-04-18T19:23:33.126Z,94.40
2023-04-18T19:26:08.619Z,94.70
2023-04-18T19:28:41.447Z,93.70
2023-04-18T19:31:10.423Z,95.10
2023-04-18T19:33:40.255Z,94.00
2023-04-18T19:36:10.426Z,94.40
2023-04-18T19:38:39.249Z,93.80
2023-04-18T19:41:09.870Z,94.20
2023-04-18T19:43:40.407Z,94.00
2023-04-18T19:46:12.301Z,94.00
2023-04-18T19:48:42.186Z,94.40
2023-04-18T19:51:11.089Z,94.40
2023-04-18T19:53:39.970Z,94.70
2023-04-18T19:56:10.930Z,94.50
2023-04-18T19:58:45.011Z,94.60
2023-04-18T20:01:14.576Z,94.60
2023-04-18T20:03:44.752Z,94.70
2023-04-18T20:06:13.507Z,95.20
2023-04-18T20:08:45.867Z,95.30
2023-04-18T20:11:15.054Z,95.40
2023-04-18T20:13:43.515Z,95.70
2023-04-18T20:16:12.575Z,95.70
2023-04-18T20:18:47.332Z,95.70
2023-04-18T20:21:16.039Z,95.90
2023-04-18T20:23:45.317Z,96.20
2023-04-18T20:26:13.728Z,96.30
2023-04-18T20:28:45.136Z,96.70
2023-04-18T20:31:13.676Z,96.50
2023-04-18T20:33:43.686Z,96.80
2023-04-18T20:36:14.348Z,96.90
2023-04-18T20:38:44.485Z,97.20
2023-04-18T20:41:27.378Z,97.00
2023-04-18T20:43:58.731Z,97.20
2023-04-18T20:46:29.333Z,97.30
2023-04-18T20:49:01.657Z,97.60
2023-04-18T20:51:34.462Z,97.70
2023-04-18T20:54:06.032Z,98.20
2023-04-18T20:56:36.632Z,97.60
2023-04-18T20:59:06.511Z,97.90
2023-04-18T21:01:36.927Z,97.90
2023-04-18T21:04:11.179Z,98.10
2023-04-18T21:06:39.983Z,98.30
2023-04-18T21:09:08.859Z,98.30
2023-04-18T21:11:37.268Z,98.40
2023-04-18T21:14:07.560Z,98.50
2023-04-18T21:16:36.813Z,98.50
2023-04-18T21:19:05.287Z,98.30
2023-04-18T21:21:35.660Z,98.50
2023-04-18T21:24:04.338Z,98.60
2023-04-18T21:26:32.726Z,98.60
2023-04-18T21:29:02.706Z,98.80
2023-04-18T21:31:33.051Z,99.00
2023-04-18T21:34:05.557Z,98.70
2023-04-18T21:36:35.282Z,98.70
2023-04-18T21:39:04.050Z,98.60
2023-04-18T21:41:32.588Z,98.70
2023-04-18T21:44:01.296Z,98.90
2023-04-18T21:46:29.647Z,98.70
2023-04-18T21:48:57.864Z,98.90
2023-04-18T21:51:27.235Z,98.90
2023-04-18T21:53:57.194Z,98.60
2023-04-18T21:56:25.956Z,98.80
2023-04-18T21:58:54.226Z,99.10
2023-04-18T22:01:22.666Z,98.90
2023-04-18T22:03:51.451Z,98.90
2023-04-18T22:06:20.826Z,99.10
2023-04-18T22:08:50.060Z,99.10
2023-04-18T22:11:20.195Z,99.20
2023-04-18T22:13:50.144Z,99.30
2023-04-18T22:16:18.554Z,99.60
2023-04-18T22:18:47.112Z,99.30
2023-04-18T22:21:15.381Z,99.40
2023-04-18T22:23:43.632Z,99.50
2023-04-18T22:26:11.990Z,99.60
2023-04-18T22:28:41.749Z,99.90
2023-04-18T22:31:10.395Z,99.90
2023-04-18T22:33:38.611Z,99.90
2023-04-18T22:36:07.436Z,99.90
2023-04-18T22:38:35.697Z,99.90
2023-04-18T22:41:03.975Z,99.90
2023-04-18T22:43:32.317Z,99.90
2023-04-18T22:46:02.109Z,99.90
2023-04-18T22:48:31.183Z,99.90
2023-04-18T22:51:01.780Z,99.90
2023-04-18T22:53:30.081Z,99.90
2023-04-18T22:55:58.641Z,99.90
2023-04-18T22:58:26.925Z,99.90
2023-04-18T23:00:55.263Z,99.90
2023-04-18T23:03:25.127Z,99.90
2023-04-18T23:05:53.620Z,99.90
2023-04-18T23:08:22.721Z,99.90
2023-04-18T23:10:51.168Z,99.90
2023-04-18T23:13:19.405Z,99.90
2023-04-18T23:15:47.695Z,99.90
2023-04-18T23:18:16.232Z,99.90
2023-04-18T23:20:46.149Z,99.90
2023-04-18T23:23:14.469Z,99.90
2023-04-18T23:25:42.718Z,99.90
2023-04-18T23:28:10.953Z,99.90
2023-04-18T23:30:39.234Z,99.90
2023-04-18T23:33:08.525Z,99.90
2023-04-18T23:35:36.857Z,99.90
2023-04-18T23:38:06.573Z,99.90
2023-04-18T23:40:35.234Z,99.90
2023-04-18T23:43:03.743Z,99.90
2023-04-18T23:45:32.261Z,99.90
2023-04-18T23:48:03.745Z,99.90
2023-04-18T23:50:32.168Z,99.90
2023-04-18T23:53:00.606Z,99.90
2023-04-18T23:55:30.472Z,99.90
2023-04-18T23:57:58.662Z,99.90
